Time;durP1;ratioP1;P1;durP2;ratioP2;P2;SDS_P1;SDS_P2;PMS_P1;PMS_P2;Temp;Humidity;BMP_temperature;BMP_pressure;BME280_temperature;BME280_humidity;BME280_pressure;Samples;Min_cycle;Max_cycle;Signal;HPM_P1;HPM_P2
2021/08/17 00:00:49;;;;;;;;;;;;;;;11.38;100.00;100120.16;5095426;28;20342;-66
2021/08/17 00:03:15;;;;;;;;;;;;;;;11.44;100.00;100124.16;5095680;28;19928;-70
2021/08/17 00:05:42;;;;;;;;;;;;;;;11.48;100.00;100120.13;5095379;28;19924;-70
2021/08/17 00:08:08;;;;;;;;;;;;;;;11.47;100.00;100112.13;5095188;28;20027;-70
2021/08/17 00:10:35;;;;;;;;;;;;;;;11.51;100.00;100119.84;5095170;28;20026;-70
2021/08/17 00:13:01;;;;;;;;;;;;;;;11.56;100.00;100114.81;5095398;28;20022;-70
2021/08/17 00:15:29;;;;;;;;;;;;;;;11.61;100.00;100121.69;5095417;28;20027;-70
2021/08/17 00:17:55;;;;;;;;;;;;;;;11.64;100.00;100124.13;5094877;28;20031;-70
2021/08/17 00:20:23;;;;;;;;;;;;;;;11.66;100.00;100113.94;5077069;28;20022;-65
2021/08/17 00:22:49;;;;;;;;;;;;;;;11.69;100.00;100117.25;5095009;28;19924;-66
2021/08/17 00:25:16;;;;;;;;;;;;;;;11.71;100.00;100122.53;5095179;28;20276;-66
2021/08/17 00:27:43;;;;;;;;;;;;;;;11.67;100.00;100124.66;5094967;28;19931;-66
2021/08/17 00:30:10;;;;;;;;;;;;;;;11.62;100.00;100109.81;5094860;28;20023;-66
2021/08/17 00:32:38;;;;;;;;;;;;;;;11.57;100.00;100110.22;5094998;28;19924;-66
2021/08/17 00:35:04;;;;;;;;;;;;;;;11.56;100.00;100111.25;5094696;28;19956;-66
2021/08/17 00:37:31;;;;;;;;;;;;;;;11.53;100.00;100098.81;5094869;28;20006;-67
2021/08/17 00:39:57;;;;;;;;;;;;;;;11.51;100.00;100100.81;5094779;28;19970;-70
2021/08/17 00:42:24;;;;;;;;;;;;;;;11.53;100.00;100100.66;5094858;28;19924;-70
2021/08/17 00:44:51;;;;;;;;;;;;;;;11.53;100.00;100089.78;5094745;28;20027;-68
2021/08/17 00:47:17;;;;;;;;;;;;;;;11.55;100.00;100099.50;5094355;28;20314;-68
2021/08/17 00:49:45;;;;;;;;;;;;;;;11.61;100.00;100094.50;5094449;28;20026;-66
2021/08/17 00:52:12;;;;;;;;;;;;;;;11.63;100.00;100097.94;5094322;28;20944;-64
2021/08/17 00:54:39;;;;;;;;;;;;;;;11.65;100.00;100094.06;5094530;28;19972;-70
2021/08/17 00:57:07;;;;;;;;;;;;;;;11.68;100.00;100082.91;5094289;28;19924;-65
2021/08/17 00:59:33;;;;;;;;;;;;;;;11.71;100.00;100077.16;5094381;28;20356;-65
2021/08/17 01:02:00;;;;;;;;;;;;;;;11.75;100.00;100069.56;5094580;28;20027;-65
2021/08/17 01:04:26;;;;;;;;;;;;;;;11.77;100.00;100070.28;5094282;28;19963;-66
2021/08/17 01:06:54;;;;;;;;;;;;;;;11.80;100.00;100069.97;5094068;28;19924;-65
2021/08/17 01:09:20;;;;;;;;;;;;;;;11.81;100.00;100077.16;5094355;28;20022;-66
2021/08/17 01:11:47;;;;;;;;;;;;;;;11.83;100.00;100074.28;5094247;28;20011;-65
2021/08/17 01:14:14;;;;;;;;;;;;;;;11.84;100.00;100063.25;5094216;28;20022;-65
2021/08/17 01:16:40;;;;;;;;;;;;;;;11.86;100.00;100072.09;5093983;28;20011;-70
2021/08/17 01:19:07;;;;;;;;;;;;;;;11.88;100.00;100072.81;5075741;28;19931;-70
2021/08/17 01:21:33;;;;;;;;;;;;;;;11.88;100.00;100064.66;5093797;28;20023;-67
2021/08/17 01:24:01;;;;;;;;;;;;;;;11.92;100.00;100072.50;5094048;28;19931;-66
2021/08/17 01:26:29;;;;;;;;;;;;;;;11.91;100.00;100063.50;5093957;28;19924;-66
2021/08/17 01:28:55;;;;;;;;;;;;;;;11.92;100.00;100078.81;5093496;28;20388;-66
2021/08/17 01:31:21;;;;;;;;;;;;;;;11.95;100.00;100064.09;5093855;28;19951;-65
2021/08/17 01:33:47;;;;;;;;;;;;;;;11.96;100.00;100063.06;5093702;28;19970;-66
2021/08/17 01:36:14;;;;;;;;;;;;;;;11.98;100.00;100064.63;5093608;28;19928;-65
2021/08/17 01:38:46;;;;;;;;;;;;;;;11.99;100.00;100062.78;5093407;28;20023;-65
2021/08/17 01:41:12;;;;;;;;;;;;;;;11.99;100.00;100051.91;5093570;28;20277;-67
2021/08/17 01:43:39;;;;;;;;;;;;;;;11.96;100.00;100039.47;5093727;28;19924;-66
2021/08/17 01:46:06;;;;;;;;;;;;;;;11.92;100.00;100037.16;5093268;28;20379;-65
2021/08/17 01:48:32;;;;;;;;;;;;;;;11.89;100.00;100046.47;5093405;28;20022;-66
2021/08/17 01:51:00;;;;;;;;;;;;;;;11.90;100.00;100064.50;5093059;28;19930;-70
2021/08/17 01:53:26;;;;;;;;;;;;;;;11.95;100.00;100064.09;5093426;28;19960;-70
2021/08/17 01:55:53;;;;;;;;;;;;;;;12.00;100.00;100070.78;5093351;28;19924;-70
2021/08/17 01:58:20;;;;;;;;;;;;;;;12.01;100.00;100067.06;5093075;28;20022;-70
2021/08/17 02:00:47;;;;;;;;;;;;;;;12.04;100.00;100064.03;5092981;28;20015;-70
2021/08/17 02:03:14;;;;;;;;;;;;;;;12.04;100.00;100077.66;5092886;28;20368;-67
2021/08/17 02:05:40;;;;;;;;;;;;;;;12.02;100.00;100074.19;5092674;28;20360;-66
2021/08/17 02:08:08;;;;;;;;;;;;;;;12.01;100.00;100075.22;5092778;28;19986;-70
2021/08/17 02:10:34;;;;;;;;;;;;;;;12.01;100.00;100066.19;5092993;28;19932;-70
2021/08/17 02:13:00;;;;;;;;;;;;;;;12.01;100.00;100074.34;5092988;28;20024;-70
2021/08/17 02:15:27;;;;;;;;;;;;;;;12.03;100.00;100054.16;5092868;28;20026;-70
2021/08/17 02:17:54;;;;;;;;;;;;;;;12.05;100.00;100062.16;5092993;28;20023;-70
2021/08/17 02:20:20;;;;;;;;;;;;;;;12.05;100.00;100059.44;5074545;28;19925;-70
2021/08/17 02:22:47;;;;;;;;;;;;;;;12.01;100.00;100067.06;5092924;28;19924;-70
2021/08/17 02:25:14;;;;;;;;;;;;;;;11.99;100.00;100057.34;5092771;28;20015;-70
2021/08/17 02:27:40;;;;;;;;;;;;;;;11.99;100.00;100062.78;5092372;28;19924;-68
2021/08/17 02:30:07;;;;;;;;;;;;;;;12.03;100.00;100056.03;5092690;28;20018;-68
2021/08/17 02:32:33;;;;;;;;;;;;;;;12.09;100.00;100047.25;5092424;28;19955;-68
2021/08/17 02:35:01;;;;;;;;;;;;;;;12.15;100.00;100053.97;5092485;28;20400;-68
2021/08/17 02:37:27;;;;;;;;;;;;;;;12.17;100.00;100050.09;5092470;28;20035;-68
2021/08/17 02:39:54;;;;;;;;;;;;;;;12.20;100.00;100060.66;5092345;28;20023;-69
2021/08/17 02:42:20;;;;;;;;;;;;;;;12.23;100.00;100060.34;5092575;28;19956;-68
2021/08/17 02:44:46;;;;;;;;;;;;;;;12.25;100.00;100057.47;5092322;28;19924;-66
2021/08/17 02:47:13;;;;;;;;;;;;;;;12.26;100.00;100042.88;5092127;28;19930;-66
2021/08/17 02:49:39;;;;;;;;;;;;;;;12.28;100.00;100049.03;5092212;28;20014;-67
2021/08/17 02:52:07;;;;;;;;;;;;;;;12.32;100.00;100053.16;5092133;28;20018;-67
2021/08/17 02:54:34;;;;;;;;;;;;;;;12.34;100.00;100053.00;5092396;28;19930;-67
2021/08/17 02:57:00;;;;;;;;;;;;;;;12.37;100.00;100063.56;5091817;28;19924;-67
2021/08/17 02:59:27;;;;;;;;;;;;;;;12.39;100.00;100056.13;5091701;28;20019;-67
2021/08/17 03:01:53;;;;;;;;;;;;;;;12.44;100.00;100055.66;5091976;28;20284;-67
2021/08/17 03:04:19;;;;;;;;;;;;;;;12.48;100.00;100046.16;5092450;28;19924;-68
2021/08/17 03:06:46;;;;;;;;;;;;;;;12.53;100.00;100054.72;5091997;28;19971;-69
2021/08/17 03:09:13;;;;;;;;;;;;;;;12.56;100.00;100049.84;5091741;28;20019;-69
2021/08/17 03:11:40;;;;;;;;;;;;;;;12.56;100.00;100054.44;5073880;28;20353;-68
2021/08/17 03:14:06;;;;;;;;;;;;;;;12.58;100.00;100046.97;5091320;28;19935;-67
2021/08/17 03:16:32;;;;;;;;;;;;;;;12.59;100.00;100043.25;5091482;28;20395;-68
2021/08/17 03:18:59;;;;;;;;;;;;;;;12.63;100.00;100046.53;5091552;28;20451;-66
2021/08/17 03:21:25;;;;;;;;;;;;;;;12.64;100.00;100040.03;5091667;28;20031;-67
2021/08/17 03:23:51;;;;;;;;;;;;;;;12.65;100.00;100044.47;5091899;28;20019;-67
2021/08/17 03:26:19;;;;;;;;;;;;;;;12.64;100.00;100034.59;5091506;28;20358;-67
2021/08/17 03:28:45;;;;;;;;;;;;;;;12.65;100.00;100037.16;5091474;28;20035;-67
2021/08/17 03:31:12;;;;;;;;;;;;;;;12.68;100.00;100044.16;5091497;28;19993;-67
2021/08/17 03:33:38;;;;;;;;;;;;;;;12.68;100.00;100042.31;5073838;28;20014;-67
2021/08/17 03:36:05;;;;;;;;;;;;;;;12.69;100.00;100040.44;5091797;28;19963;-66
2021/08/17 03:38:31;;;;;;;;;;;;;;;12.70;100.00;100044.88;5073125;28;19950;-70
2021/08/17 03:40:58;;;;;;;;;;;;;;;12.72;100.00;100043.72;5091576;28;20462;-70
2021/08/17 03:43:25;;;;;;;;;;;;;;;12.72;100.00;100046.44;5091462;28;20023;-66
2021/08/17 03:45:51;;;;;;;;;;;;;;;12.72;100.00;100035.53;5091675;28;20022;-70
2021/08/17 03:48:18;;;;;;;;;;;;;;;12.73;100.00;100055.44;5091445;28;20027;-70
2021/08/17 03:50:45;;;;;;;;;;;;;;;12.72;100.00;100043.72;5091386;28;19978;-66
2021/08/17 03:53:11;;;;;;;;;;;;;;;12.72;100.00;100042.88;5091700;28;20023;-65
2021/08/17 03:55:37;;;;;;;;;;;;;;;12.67;100.00;100042.47;5091374;28;20043;-66
2021/08/17 03:58:04;;;;;;;;;;;;;;;12.66;100.00;100054.38;5091284;28;19963;-66
2021/08/17 04:00:33;;;;;;;;;;;;;;;12.62;100.00;100061.13;5091214;28;19924;-67
2021/08/17 04:03:00;;;;;;;;;;;;;;;12.61;100.00;100053.97;5091248;28;19970;-67
2021/08/17 04:05:26;;;;;;;;;;;;;;;12.65;100.00;100063.53;5091535;28;20022;-67
2021/08/17 04:07:53;;;;;;;;;;;;;;;12.67;100.00;100064.25;5090951;28;20387;-68
2021/08/17 04:10:20;;;;;;;;;;;;;;;12.65;100.00;100069.81;5091273;28;20026;-68
2021/08/17 04:12:46;;;;;;;;;;;;;;;12.69;100.00;100075.84;5091285;28;20343;-68
2021/08/17 04:15:12;;;;;;;;;;;;;;;12.71;100.00;100079.28;5091310;28;20026;-67
2021/08/17 04:17:41;;;;;;;;;;;;;;;12.73;100.00;100083.56;5091250;28;20015;-69
2021/08/17 04:20:08;;;;;;;;;;;;;;;12.74;100.00;100087.13;5091121;28;20022;-66
2021/08/17 04:22:34;;;;;;;;;;;;;;;12.77;100.00;100083.25;5091419;28;19959;-67
2021/08/17 04:25:01;;;;;;;;;;;;;;;12.77;100.00;100088.69;5091060;28;20023;-67
2021/08/17 04:27:27;;;;;;;;;;;;;;;12.79;100.00;100087.53;5091076;28;20364;-70
2021/08/17 04:29:53;;;;;;;;;;;;;;;12.81;100.00;100090.94;5094428;28;20015;-69
2021/08/17 04:32:19;;;;;;;;;;;;;;;12.84;100.00;100098.81;5094714;28;19978;-70
2021/08/17 04:34:47;;;;;;;;;;;;;;;12.86;100.00;100098.66;5091625;28;20369;-69
2021/08/17 04:37:13;;;;;;;;;;;;;;;12.88;100.00;100092.03;5066183;28;19925;-67
2021/08/17 04:39:40;;;;;;;;;;;;;;;12.92;100.00;100092.59;5059397;28;19932;-69
2021/08/17 04:42:06;;;;;;;;;;;;;;;12.93;100.00;100093.44;5074768;28;20307;-69
2021/08/17 04:44:32;;;;;;;;;;;;;;;12.96;100.00;100104.88;5094812;28;19959;-69
2021/08/17 04:46:59;;;;;;;;;;;;;;;13.00;100.00;100105.41;5082873;28;20314;-68
2021/08/17 04:49:25;;;;;;;;;;;;;;;13.03;100.00;100088.78;5078767;28;20011;-68
2021/08/17 04:51:52;;;;;;;;;;;;;;;13.10;100.00;100105.34;5074128;28;20011;-68
2021/08/17 04:54:19;;;;;;;;;;;;;;;13.13;100.00;100105.03;5088206;28;20024;-68
2021/08/17 04:56:45;;;;;;;;;;;;;;;13.12;100.00;100112.38;5084104;28;20022;-67
2021/08/17 04:59:11;;;;;;;;;;;;;;;13.13;100.00;100122.22;5086712;28;19924;-67
2021/08/17 05:01:37;;;;;;;;;;;;;;;13.15;100.00;100125.66;5086427;28;19960;-67
2021/08/17 05:04:04;;;;;;;;;;;;;;;13.17;100.00;100129.06;5070840;28;19971;-67
2021/08/17 05:06:30;;;;;;;;;;;;;;;13.21;100.00;100137.81;5065466;28;19978;-68
2021/08/17 05:08:58;;;;;;;;;;;;;;;13.21;100.00;100127.78;5092010;28;19928;-68
2021/08/17 05:11:24;;;;;;;;;;;;;;;13.22;100.00;100137.63;5072737;28;19931;-70
2021/08/17 05:13:50;;;;;;;;;;;;;;;13.23;100.00;100139.38;5086816;28;19924;-67
2021/08/17 05:16:17;;;;;;;;;;;;;;;13.25;100.00;100147.38;5077370;28;19924;-70
2021/08/17 05:18:45;;;;;;;;;;;;;;;13.27;100.00;100144.50;5088388;28;20474;-70
2021/08/17 05:21:11;;;;;;;;;;;;;;;13.30;100.00;100145.03;5078511;28;20058;-70
2021/08/17 05:23:37;;;;;;;;;;;;;;;13.32;100.00;100158.50;5077346;28;20031;-68
2021/08/17 05:26:05;;;;;;;;;;;;;;;13.32;100.00;100147.59;5080376;28;20039;-67
2021/08/17 05:28:31;;;;;;;;;;;;;;;13.38;100.00;100164.22;5075905;28;19960;-67
2021/08/17 05:30:57;;;;;;;;;;;;;;;13.45;100.00;100171.78;5093876;28;20375;-67
2021/08/17 05:33:24;;;;;;;;;;;;;;;13.48;100.00;100171.47;5092154;28;19924;-69
2021/08/17 05:35:50;;;;;;;;;;;;;;;13.49;100.00;100175.91;5082698;28;19924;-69
2021/08/17 05:38:16;;;;;;;;;;;;;;;13.49;100.00;100176.75;5063605;28;20338;-70
2021/08/17 05:40:43;;;;;;;;;;;;;;;13.45;100.00;100169.06;5072955;28;19966;-69
2021/08/17 05:43:10;;;;;;;;;;;;;;;13.42;100.00;100172.09;5074011;28;20023;-68
2021/08/17 05:45:36;;;;;;;;;;;;;;;13.42;100.00;100180.28;5079233;28;19941;-69
2021/08/17 05:48:03;;;;;;;;;;;;;;;13.45;100.00;100194.44;5082316;28;20018;-69
2021/08/17 05:50:29;;;;;;;;;;;;;;;13.43;100.00;100199.22;5080327;28;20375;-69
2021/08/17 05:52:56;;;;;;;;;;;;;;;13.47;100.00;100191.56;5091910;28;19975;-71
2021/08/17 05:55:22;;;;;;;;;;;;;;;13.51;100.00;100192.97;5077857;28;20417;-65
2021/08/17 05:57:58;;;;;;;;;;;;;;;13.53;100.00;100202.69;5091630;28;20371;-67
2021/08/17 06:00:26;;;;;;;;;;;;;;;13.59;100.00;100197.63;5073458;28;19934;-65
2021/08/17 06:02:53;;;;;;;;;;;;;;;13.61;100.00;100199.19;5074138;28;20095;-68
2021/08/17 06:05:19;;;;;;;;;;;;;;;13.66;100.00;100201.47;5074131;28;19933;-67
2021/08/17 06:07:46;;;;;;;;;;;;;;;13.72;100.00;100207.13;5083913;28;20014;-69
2021/08/17 06:10:12;;;;;;;;;;;;;;;13.79;100.00;100209.22;5082064;28;20020;-65
2021/08/17 06:12:38;;;;;;;;;;;;;;;13.84;100.00;100218.66;5090927;28;20018;-65
2021/08/17 06:15:05;;;;;;;;;;;;;;;13.87;100.00;100210.16;5082483;28;19971;-68
2021/08/17 06:17:33;;;;;;;;;;;;;;;13.82;100.00;100201.56;5072909;28;20479;-65
2021/08/17 06:19:59;;;;;;;;;;;;;;;13.87;100.00;100210.16;5079558;28;20015;-69
2021/08/17 06:22:25;;;;;;;;;;;;;;;13.88;100.00;100206.41;5092816;28;20027;-70
2021/08/17 06:24:52;;;;;;;;;;;;;;;13.88;100.00;100209.13;5092938;28;19967;-69
2021/08/17 06:27:19;;;;;;;;;;;;;;;13.93;100.00;100207.81;5092380;28;20022;-65
2021/08/17 06:29:45;;;;;;;;;;;;;;;13.90;100.00;100212.53;5092832;28;20368;-66
2021/08/17 06:32:11;;;;;;;;;;;;;;;13.87;100.00;100204.69;5092513;28;20010;-66
2021/08/17 06:34:39;;;;;;;;;;;;;;;13.91;100.00;100218.88;5092754;28;19924;-65
2021/08/17 06:37:05;;;;;;;;;;;;;;;13.89;100.00;100221.75;5092392;28;19930;-66
2021/08/17 06:39:32;;;;;;;;;;;;;;;13.93;100.00;100216.00;5092570;28;19951;-66
2021/08/17 06:41:58;;;;;;;;;;;;;;;13.88;100.00;100227.34;5092529;28;20098;-66
2021/08/17 06:44:24;;;;;;;;;;;;;;;13.85;100.00;100235.88;5092325;28;20022;-65
2021/08/17 06:46:50;;;;;;;;;;;;;;;13.84;100.00;100240.47;5092215;28;19978;-68
2021/08/17 06:49:17;;;;;;;;;;;;;;;13.80;100.00;100241.81;5074226;28;20410;-69
2021/08/17 06:51:44;;;;;;;;;;;;;;;13.72;100.00;100233.53;5092224;28;20435;-68
2021/08/17 06:54:10;;;;;;;;;;;;;;;13.65;100.00;100237.91;5092402;28;19964;-69
2021/08/17 06:56:37;;;;;;;;;;;;;;;13.61;100.00;100231.06;5092002;28;20022;-68
2021/08/17 06:59:03;;;;;;;;;;;;;;;13.63;100.00;100243.53;5091823;28;20463;-69
2021/08/17 07:01:29;;;;;;;;;;;;;;;13.70;100.00;100235.56;5091845;28;20018;-68
2021/08/17 07:03:56;;;;;;;;;;;;;;;13.77;100.00;100244.00;5091665;28;20035;-69
2021/08/17 07:06:22;;;;;;;;;;;;;;;13.90;100.00;100245.28;5091977;28;19981;-71
2021/08/17 07:08:49;;;;;;;;;;;;;;;14.22;100.00;100242.97;5091565;28;19928;-70
2021/08/17 07:11:16;;;;;;;;;;;;;;;14.40;100.00;100246.50;5092026;28;19959;-66
2021/08/17 07:13:42;;;;;;;;;;;;;;;14.62;100.00;100233.31;5091869;28;20444;-65
2021/08/17 07:16:09;;;;;;;;;;;;;;;14.72;100.00;100230.47;5092000;28;20047;-66
2021/08/17 07:18:35;;;;;;;;;;;;;;;14.77;100.00;100236.31;5091843;28;20030;-65
2021/08/17 07:21:01;;;;;;;;;;;;;;;15.02;100.00;100229.06;5091706;28;19930;-65
2021/08/17 07:23:28;;;;;;;;;;;;;;;15.06;100.00;100235.91;5092040;28;20311;-64
2021/08/17 07:25:55;;;;;;;;;;;;;;;15.23;100.00;100233.22;5091642;28;20010;-65
2021/08/17 07:28:22;;;;;;;;;;;;;;;15.21;100.00;100233.38;5091605;28;20053;-68
2021/08/17 07:30:48;;;;;;;;;;;;;;;15.20;100.00;100248.06;5073652;28;19973;-65
2021/08/17 07:33:14;;;;;;;;;;;;;;;15.18;100.00;100241.94;5091689;28;19924;-65
2021/08/17 07:35:40;;;;;;;;;;;;;;;15.20;100.00;100241.75;5091788;28;20019;-65
2021/08/17 07:38:07;;;;;;;;;;;;;;;15.09;100.00;100242.06;5091122;28;19928;-65
2021/08/17 07:40:33;;;;;;;;;;;;;;;14.99;100.00;100255.84;5091709;28;19968;-65
2021/08/17 07:43:01;;;;;;;;;;;;;;;14.99;100.00;100247.66;5091517;28;20323;-70
2021/08/17 07:45:27;;;;;;;;;;;;;;;15.10;100.00;100251.97;5091724;28;19951;-65
2021/08/17 07:47:53;;;;;;;;;;;;;;;15.35;100.00;100226.41;5091446;28;20026;-67
2021/08/17 07:50:20;;;;;;;;;;;;;;;15.73;100.00;100245.09;5091256;28;19924;-67
2021/08/17 07:52:46;;;;;;;;;;;;;;;15.97;100.00;100244.28;5073593;28;20018;-69
2021/08/17 07:55:13;;;;;;;;;;;;;;;15.82;100.00;100248.72;5091485;28;20361;-70
2021/08/17 07:57:39;;;;;;;;;;;;;;;15.64;100.00;100240.66;5091523;28;20066;-70
2021/08/17 08:00:09;;;;;;;;;;;;;;;15.33;100.00;100250.34;5091215;28;19924;-66
2021/08/17 08:02:35;;;;;;;;;;;;;;;14.73;100.00;100278.63;5091532;28;20018;-65
2021/08/17 08:05:01;;;;;;;;;;;;;;;14.58;100.00;100286.56;5095135;28;19924;-65
2021/08/17 08:07:28;;;;;;;;;;;;;;;14.59;100.00;100292.84;5095192;28;20332;-65
2021/08/17 08:09:54;;;;;;;;;;;;;;;14.43;100.00;100297.22;5095582;28;19975;-69
2021/08/17 08:12:20;;;;;;;;;;;;;;;14.09;100.00;100308.03;5095299;28;19928;-65
2021/08/17 08:14:47;;;;;;;;;;;;;;;13.85;100.00;100312.25;5095459;28;20010;-65
2021/08/17 08:17:14;;;;;;;;;;;;;;;13.63;100.00;100308.97;5095239;28;19924;-68
2021/08/17 08:19:41;;;;;;;;;;;;;;;13.66;100.00;100313.28;5095275;28;19963;-68
2021/08/17 08:22:08;;;;;;;;;;;;;;;13.79;100.00;100324.66;5095179;28;19928;-68
2021/08/17 08:24:35;;;;;;;;;;;;;;;13.93;100.00;100328.69;5095035;28;19924;-67
2021/08/17 08:27:01;;;;;;;;;;;;;;;14.03;100.00;100323.16;5094934;28;19967;-67
2021/08/17 08:29:28;;;;;;;;;;;;;;;14.12;100.00;100330.41;5094935;28;20466;-67
2021/08/17 08:31:54;;;;;;;;;;;;;;;14.16;100.00;100326.38;5094753;28;19967;-65
2021/08/17 08:34:22;;;;;;;;;;;;;;;14.36;100.00;100327.03;5095213;28;19924;-65
2021/08/17 08:36:49;;;;;;;;;;;;;;;14.49;100.00;100326.59;5094511;28;20015;-65
2021/08/17 08:39:15;;;;;;;;;;;;;;;14.78;100.00;100313.66;5094981;28;19928;-65
2021/08/17 08:41:42;;;;;;;;;;;;;;;15.01;100.00;100313.97;5094674;28;20027;-66
2021/08/17 08:44:08;;;;;;;;;;;;;;;15.11;100.00;100311.94;5094769;28;19950;-67
2021/08/17 08:46:34;;;;;;;;;;;;;;;15.15;100.00;100304.25;5094772;28;20049;-69
2021/08/17 08:49:02;;;;;;;;;;;;;;;14.90;100.00;100307.75;5094531;28;20000;-65
2021/08/17 08:51:30;;;;;;;;;;;;;;;14.87;100.00;100316.28;5094769;28;20357;-65
2021/08/17 08:53:56;;;;;;;;;;;;;;;14.77;100.00;100317.41;5094615;28;20023;-66
2021/08/17 08:56:22;;;;;;;;;;;;;;;14.67;100.00;100326.59;5094493;28;19930;-66
2021/08/17 08:58:48;;;;;;;;;;;;;;;14.63;100.00;100327.94;5094141;28;20015;-66
2021/08/17 09:01:20;;;;;;;;;;;;;;;14.65;100.00;100346.88;5093994;28;19924;-65
2021/08/17 09:03:47;;;;;;;;;;;;;;;14.65;100.00;100333.22;5094561;28;20023;-66
2021/08/17 09:06:18;;;;;;;;;;;;;;;14.63;100.00;100336.13;5093998;28;19924;-66
2021/08/17 09:08:46;;;;;;;;;;;;;;;14.69;100.00;100338.19;5094537;28;19927;-66
2021/08/17 09:11:16;;;;;;;;;;;;;;;14.66;100.00;100337.69;5093889;28;20043;-65
2021/08/17 09:13:43;;;;;;;;;;;;;;;14.72;100.00;100326.09;5094174;28;19924;-65
2021/08/17 09:16:22;;;;;;;;;;;;;;;14.65;100.00;100327.75;5092603;28;20406;-66
2021/08/17 09:18:50;;;;;;;;;;;;;;;14.72;100.00;100332.44;5093914;28;19989;-70
2021/08/17 09:21:16;;;;;;;;;;;;;;;14.76;100.00;100343.88;5094016;28;19931;-70
2021/08/17 09:23:42;;;;;;;;;;;;;;;14.72;100.00;100342.47;5093825;28;19963;-70
2021/08/17 09:26:22;;;;;;;;;;;;;;;14.71;100.00;100336.16;5093797;28;20014;-69
2021/08/17 09:28:54;;;;;;;;;;;;;;;14.77;100.00;100342.84;5093735;28;19971;-65
2021/08/17 09:31:34;;;;;;;;;;;;;;;14.76;100.00;100338.41;5093873;28;19924;-65
2021/08/17 09:34:00;;;;;;;;;;;;;;;14.69;100.00;100327.25;5093894;28;20360;-65
2021/08/17 09:36:35;;;;;;;;;;;;;;;14.77;100.00;100337.38;5093580;28;20027;-65
2021/08/17 09:39:01;;;;;;;;;;;;;;;14.83;100.00;100331.28;5093086;28;20360;-66
2021/08/17 09:41:29;;;;;;;;;;;;;;;14.85;100.00;100337.44;5083941;28;19974;-67
2021/08/17 09:43:57;;;;;;;;;;;;;;;14.87;100.00;100348.19;5090084;28;19931;-65
2021/08/17 09:46:25;;;;;;;;;;;;;;;14.86;100.00;100327.38;5080560;28;19978;-68
2021/08/17 09:48:52;;;;;;;;;;;;;;;14.98;100.00;100347.94;5088557;28;20379;-65
2021/08/17 09:51:30;;;;;;;;;;;;;;;15.27;100.00;100337.63;5091457;28;19924;-69
2021/08/17 09:54:10;;;;;;;;;;;;;;;15.32;100.00;100346.19;5072948;28;20396;-67
2021/08/17 09:56:37;;;;;;;;;;;;;;;15.40;100.00;100336.13;5072675;28;20391;-68
2021/08/17 09:59:04;;;;;;;;;;;;;;;15.40;100.00;100338.88;5072158;28;19983;-68
2021/08/17 10:01:31;;;;;;;;;;;;;;;15.54;100.00;100340.13;5085077;28;19924;-68
2021/08/17 10:03:59;;;;;;;;;;;;;;;15.56;100.00;100338.06;5076138;28;20011;-69
2021/08/17 10:06:25;;;;;;;;;;;;;;;15.56;100.00;100335.34;5073689;28;19924;-66
2021/08/17 10:08:52;;;;;;;;;;;;;;;15.51;100.00;100328.66;5072475;28;20023;-66
2021/08/17 10:11:18;;;;;;;;;;;;;;;15.33;100.00;100337.00;5083417;28;20479;-65
2021/08/17 10:13:47;;;;;;;;;;;;;;;15.25;100.00;100326.88;5077130;28;20407;-65
2021/08/17 10:16:16;;;;;;;;;;;;;;;15.26;100.00;100338.66;5092652;28;20022;-69
2021/08/17 10:18:44;;;;;;;;;;;;;;;15.17;100.00;100337.78;5088191;28;19935;-68
2021/08/17 10:21:10;;;;;;;;;;;;;;;15.18;100.00;100350.44;5083920;28;20406;-67
2021/08/17 10:23:40;;;;;;;;;;;;;;;15.23;100.00;100346.19;5085806;28;19928;-68
2021/08/17 10:26:07;;;;;;;;;;;;;;;15.29;100.00;100347.38;5089598;28;20370;-71
2021/08/17 10:28:34;;;;;;;;;;;;;;;15.39;100.00;100341.78;5092427;28;19955;-66
2021/08/17 10:31:17;;;;;;;;;;;;;;;15.54;100.00;100348.34;5091389;28;20456;-65
2021/08/17 10:33:48;;;;;;;;;;;;;;;15.80;100.00;100341.03;5072219;28;19924;-65
2021/08/17 10:36:28;;;;;;;;;;;;;;;15.91;100.00;100343.47;5071482;28;19933;-66
2021/08/17 10:38:55;;;;;;;;;;;;;;;15.73;100.00;100330.75;5072190;28;19936;-72
2021/08/17 10:41:29;;;;;;;;;;;;;;;15.78;100.00;100326.66;5071533;28;20011;-69
2021/08/17 10:44:03;;;;;;;;;;;;;;;15.60;100.00;100338.59;5075078;28;20328;-71
2021/08/17 10:46:38;;;;;;;;;;;;;;;15.40;100.00;100351.69;5075759;28;20011;-71
2021/08/17 10:49:23;;;;;;;;;;;;;;;15.40;100.00;100338.88;5082536;28;20400;-65
2021/08/17 10:51:50;;;;;;;;;;;;;;;15.29;100.00;100349.28;5084879;28;19932;-66
2021/08/17 10:54:16;;;;;;;;;;;;;;;15.32;100.00;100344.31;5085981;28;20018;-66
2021/08/17 10:56:43;;;;;;;;;;;;;;;15.34;100.00;100349.63;5056516;28;20316;-66
2021/08/17 10:59:09;;;;;;;;;;;;;;;15.31;100.00;100348.09;5083589;28;19924;-67
2021/08/17 11:01:37;;;;;;;;;;;;;;;15.38;100.00;100359.22;5071317;28;19993;-67
2021/08/17 11:04:05;;;;;;;;;;;;;;;15.42;100.00;100367.94;5081031;28;19924;-66
2021/08/17 11:06:45;;;;;;;;;;;;;;;15.43;100.00;100377.88;5075581;28;21357;-68
2021/08/17 11:09:13;;;;;;;;;;;;;;;15.33;100.00;100383.47;5080911;28;19928;-70
2021/08/17 11:11:39;;;;;;;;;;;;;;;15.04;100.00;100381.94;5073147;28;20024;-70
2021/08/17 11:14:07;;;;;;;;;;;;;;;14.79;100.00;100373.63;5079476;28;19924;-72
2021/08/17 11:16:34;;;;;;;;;;;;;;;14.87;100.00;100394.66;5077907;28;20007;-66
2021/08/17 11:19:01;;;;;;;;;;;;;;;14.88;100.00;100386.31;5083585;28;20032;-66
2021/08/17 11:21:32;;;;;;;;;;;;;;;15.12;100.00;100392.06;5086922;28;20066;-66
2021/08/17 11:24:07;;;;;;;;;;;;;;;15.01;100.00;100385.88;5084876;28;19924;-66
2021/08/17 11:26:33;;;;;;;;;;;;;;;15.01;100.00;100395.94;5081998;28;19924;-71
2021/08/17 11:29:00;;;;;;;;;;;;;;;14.90;100.00;100403.38;5086689;28;20019;-69
2021/08/17 11:31:26;;;;;;;;;;;;;;;14.76;100.00;100405.84;5089337;28;19932;-71
2021/08/17 11:34:07;;;;;;;;;;;;;;;14.35;100.00;100418.13;5090004;28;20023;-65
2021/08/17 11:36:33;;;;;;;;;;;;;;;13.98;100.00;100429.22;5070444;28;19925;-65
2021/08/17 11:39:14;;;;;;;;;;;;;;;13.88;100.00;100441.03;5083532;28;20446;-66
2021/08/17 11:41:42;;;;;;;;;;;;;;;13.86;100.00;100432.13;5089614;28;20395;-69
2021/08/17 11:44:09;;;;;;;;;;;;;;;14.08;100.00;100435.44;5082008;28;19929;-67
2021/08/17 11:46:35;;;;;;;;;;;;;;;14.17;100.00;100426.31;5072193;28;19924;-65
2021/08/17 11:49:16;;;;;;;;;;;;;;;14.30;100.00;100411.44;5071004;28;19964;-71
2021/08/17 11:51:42;;;;;;;;;;;;;;;14.51;100.00;100420.16;5070784;28;20011;-71
2021/08/17 11:54:09;;;;;;;;;;;;;;;14.75;100.00;100415.91;5071089;28;20015;-71
2021/08/17 11:56:35;;;;;;;;;;;;;;;14.90;100.00;100417.06;5052782;28;19975;-66
2021/08/17 11:59:03;;;;;;;;;;;;;;;15.00;100.00;100422.41;5070594;28;19925;-65
2021/08/17 12:01:29;;;;;;;;;;;;;;;15.10;100.00;100429.63;5071204;28;19925;-65
2021/08/17 12:04:05;;;;;;;;;;;;;;;15.09;100.00;100417.84;5071087;28;19977;-65
2021/08/17 12:06:31;;;;;;;;;;;;;;;15.05;100.00;100424.66;5070761;28;19931;-65
2021/08/17 12:09:12;;;;;;;;;;;;;;;15.20;100.00;100412.09;5070674;28;19929;-69
2021/08/17 12:11:55;;;;;;;;;;;;;;;15.19;100.00;100418.59;5070567;28;20023;-68
2021/08/17 12:14:24;;;;;;;;;;;;;;;15.11;100.00;100413.06;5082345;28;20042;-69
2021/08/17 12:16:52;;;;;;;;;;;;;;;15.26;100.00;100404.28;5091191;28;20022;-69
2021/08/17 12:19:18;;;;;;;;;;;;;;;15.33;100.00;100408.94;5091085;28;20407;-65
2021/08/17 12:21:45;;;;;;;;;;;;;;;15.26;100.00;100417.94;5090948;28;19959;-69
2021/08/17 12:24:19;;;;;;;;;;;;;;;15.31;100.00;100415.56;5091499;28;19966;-66
2021/08/17 12:26:52;;;;;;;;;;;;;;;15.31;100.00;100418.31;5090856;28;20318;-71
2021/08/17 12:29:23;;;;;;;;;;;;;;;15.32;100.00;100420.88;5090342;28;20121;-71